sensor_id;sensor_type;location;lat;lon;timestamp;pressure;altitude;pressure_sealevel;temperature;humidity
22389;BME280;11362;48.102;11.620;2023-08-06T00:02:03;94613.72;;;24.33;47.93
22389;BME280;11362;48.102;11.620;2023-08-06T00:06:56;94619.59;;;24.35;47.80
22389;BME280;11362;48.102;11.620;2023-08-06T00:09:21;94616.81;;;24.35;47.88
22389;BME280;11362;48.102;11.620;2023-08-06T00:11:46;94617.59;;;24.35;47.97
22389;BME280;11362;48.102;11.620;2023-08-06T00:14:12;94616.47;;;24.33;47.97
22389;BME280;11362;48.102;11.620;2023-08-06T00:16:38;94624.34;;;24.34;47.88
22389;BME280;11362;48.102;11.620;2023-08-06T00:19:03;94624.34;;;24.34;47.76
22389;BME280;11362;48.102;11.620;2023-08-06T00:21:28;94621.56;;;24.34;47.85
22389;BME280;11362;48.102;11.620;2023-08-06T00:23:54;94629.91;;;24.34;47.78
22389;BME280;11362;48.102;11.620;2023-08-06T00:26:19;94629.13;;;24.34;47.78
22389;BME280;11362;48.102;11.620;2023-08-06T00:31:22;94619.25;;;24.33;47.81
22389;BME280;11362;48.102;11.620;2023-08-06T00:33:47;94622.03;;;24.33;47.78
22389;BME280;11362;48.102;11.620;2023-08-06T00:36:12;94616.91;;;24.31;47.65
22389;BME280;11362;48.102;11.620;2023-08-06T00:38:38;94621.25;;;24.32;47.72
22389;BME280;11362;48.102;11.620;2023-08-06T00:41:03;94622.88;;;24.30;47.42
22389;BME280;11362;48.102;11.620;2023-08-06T00:43:28;94619.34;;;24.29;47.63
22389;BME280;11362;48.102;11.620;2023-08-06T00:45:54;94620.91;;;24.30;47.56
22389;BME280;11362;48.102;11.620;2023-08-06T00:48:20;94611.03;;;24.29;47.69
22389;BME280;11362;48.102;11.620;2023-08-06T00:50:45;94605.47;;;24.29;47.66
22389;BME280;11362;48.102;11.620;2023-08-06T00:53:11;94604.59;;;24.32;47.77
22389;BME280;11362;48.102;11.620;2023-08-06T00:57:48;94600.25;;;24.31;47.55
22389;BME280;11362;48.102;11.620;2023-08-06T01:00:14;94603.03;;;24.31;47.61
22389;BME280;11362;48.102;11.620;2023-08-06T01:02:39;94603.03;;;24.31;47.63
22389;BME280;11362;48.102;11.620;2023-08-06T01:05:04;94607.34;;;24.32;47.56
22389;BME280;11362;48.102;11.620;2023-08-06T01:07:43;94601.06;;;24.32;47.46
22389;BME280;11362;48.102;11.620;2023-08-06T01:10:24;94607.34;;;24.32;47.38
22389;BME280;11362;48.102;11.620;2023-08-06T01:13:11;94596.25;;;24.32;47.42
22389;BME280;11362;48.102;11.620;2023-08-06T01:15:47;94594.72;;;24.31;47.33
22389;BME280;11362;48.102;11.620;2023-08-06T01:18:14;94595.94;;;24.30;47.45
22389;BME280;11362;48.102;11.620;2023-08-06T01:22:00;94589.59;;;24.30;47.31
22389;BME280;11362;48.102;11.620;2023-08-06T01:24:25;94587.25;;;24.28;47.33
22389;BME280;11362;48.102;11.620;2023-08-06T01:27:06;94584.50;;;24.28;47.28
22389;BME280;11362;48.102;11.620;2023-08-06T01:29:35;94581.25;;;24.30;47.18
22389;BME280;11362;48.102;11.620;2023-08-06T01:32:03;94576.16;;;24.28;47.36
22389;BME280;11362;48.102;11.620;2023-08-06T01:34:32;94581.72;;;24.28;47.38
22389;BME280;11362;48.102;11.620;2023-08-06T01:36:59;94582.47;;;24.29;47.41
22389;BME280;11362;48.102;11.620;2023-08-06T01:39:26;94573.72;;;24.30;47.16
22389;BME280;11362;48.102;11.620;2023-08-06T01:41:51;94577.72;;;24.29;47.30
22389;BME280;11362;48.102;11.620;2023-08-06T01:44:17;94581.72;;;24.28;47.16
22389;BME280;11362;48.102;11.620;2023-08-06T01:49:11;94578.16;;;24.28;47.26
22389;BME280;11362;48.102;11.620;2023-08-06T01:51:36;94576.16;;;24.28;47.37
22389;BME280;11362;48.102;11.620;2023-08-06T01:54:01;94577.34;;;24.27;47.46
22389;BME280;11362;48.102;11.620;2023-08-06T01:56:27;94576.94;;;24.29;47.09
22389;BME280;11362;48.102;11.620;2023-08-06T01:58:52;94569.81;;;24.28;47.22
22389;BME280;11362;48.102;11.620;2023-08-06T02:01:17;94565.81;;;24.29;47.44
22389;BME280;11362;48.102;11.620;2023-08-06T02:03:43;94562.28;;;24.28;47.31
22389;BME280;11362;48.102;11.620;2023-08-06T02:06:08;94568.59;;;24.29;47.41
22389;BME280;11362;48.102;11.620;2023-08-06T02:08:33;94563.06;;;24.29;47.17
22389;BME280;11362;48.102;11.620;2023-08-06T02:10:58;94557.94;;;24.27;47.12
22389;BME280;11362;48.102;11.620;2023-08-06T02:16:22;94560.72;;;24.27;47.24
22389;BME280;11362;48.102;11.620;2023-08-06T02:18:47;94548.41;;;24.28;47.19
22389;BME280;11362;48.102;11.620;2023-08-06T02:21:13;94553.97;;;24.28;47.33
22389;BME280;11362;48.102;11.620;2023-08-06T02:23:38;94552.75;;;24.29;47.06
22389;BME280;11362;48.102;11.620;2023-08-06T02:26:04;94553.97;;;24.28;47.15
22389;BME280;11362;48.102;11.620;2023-08-06T02:28:30;94541.63;;;24.29;47.05
22389;BME280;11362;48.102;11.620;2023-08-06T02:30:56;94537.97;;;24.32;47.27
22389;BME280;11362;48.102;11.620;2023-08-06T02:33:21;94530.53;;;24.29;46.80
22389;BME280;11362;48.102;11.620;2023-08-06T02:35:47;94519.44;;;24.29;47.04
22389;BME280;11362;48.102;11.620;2023-08-06T02:38:12;94526.22;;;24.28;46.99
22389;BME280;11362;48.102;11.620;2023-08-06T02:43:34;94528.97;;;24.28;47.16
22389;BME280;11362;48.102;11.620;2023-08-06T02:46:00;94519.88;;;24.28;47.16
22389;BME280;11362;48.102;11.620;2023-08-06T02:48:26;94513.53;;;24.27;47.11
22389;BME280;11362;48.102;11.620;2023-08-06T02:50:51;94509.56;;;24.28;47.03
22389;BME280;11362;48.102;11.620;2023-08-06T02:53:16;94496.09;;;24.27;47.05
22389;BME280;11362;48.102;11.620;2023-08-06T02:55:48;94491.31;;;24.27;46.89
22389;BME280;11362;48.102;11.620;2023-08-06T02:58:14;94477.44;;;24.27;47.17
22389;BME280;11362;48.102;11.620;2023-08-06T03:00:40;94478.66;;;24.26;47.11
22389;BME280;11362;48.102;11.620;2023-08-06T03:03:05;94484.69;;;24.25;46.98
22389;BME280;11362;48.102;11.620;2023-08-06T03:05:30;94485.00;;;24.27;46.92
22389;BME280;11362;48.102;11.620;2023-08-06T03:11:16;94482.66;;;24.25;47.17
22389;BME280;11362;48.102;11.620;2023-08-06T03:13:41;94495.31;;;24.26;46.91
22389;BME280;11362;48.102;11.620;2023-08-06T03:16:06;94488.22;;;24.25;46.91
22389;BME280;11362;48.102;11.620;2023-08-06T03:18:32;94489.78;;;24.26;46.83
22389;BME280;11362;48.102;11.620;2023-08-06T03:20:57;94497.34;;;24.26;46.91
22389;BME280;11362;48.102;11.620;2023-08-06T03:23:22;94496.53;;;24.25;47.00
22389;BME280;11362;48.102;11.620;2023-08-06T03:25:48;94500.09;;;24.26;47.04
22389;BME280;11362;48.102;11.620;2023-08-06T03:28:13;94497.34;;;24.26;46.91
22389;BME280;11362;48.102;11.620;2023-08-06T03:30:38;94498.56;;;24.25;46.81
22389;BME280;11362;48.102;11.620;2023-08-06T03:33:03;94501.34;;;24.25;46.87
22389;BME280;11362;48.102;11.620;2023-08-06T03:38:12;94504.88;;;24.25;46.69
22389;BME280;11362;48.102;11.620;2023-08-06T03:40:38;94497.34;;;24.26;46.93
22389;BME280;11362;48.102;11.620;2023-08-06T03:43:03;94499.31;;;24.25;46.79
22389;BME280;11362;48.102;11.620;2023-08-06T03:45:28;94490.22;;;24.25;46.92
22389;BME280;11362;48.102;11.620;2023-08-06T03:47:53;94488.22;;;24.25;46.75
22389;BME280;11362;48.102;11.620;2023-08-06T03:50:19;94489.78;;;24.26;46.64
22389;BME280;11362;48.102;11.620;2023-08-06T03:52:44;94499.31;;;24.25;46.70
22389;BME280;11362;48.102;11.620;2023-08-06T03:55:09;94486.66;;;24.24;46.77
22389;BME280;11362;48.102;11.620;2023-08-06T03:57:35;94484.69;;;24.25;46.62
22389;BME280;11362;48.102;11.620;2023-08-06T04:00:00;94480.31;;;24.24;46.66
22389;BME280;11362;48.102;11.620;2023-08-06T04:05:09;94483.47;;;24.26;46.61
22389;BME280;11362;48.102;11.620;2023-08-06T04:07:35;94485.44;;;24.25;46.66
22389;BME280;11362;48.102;11.620;2023-08-06T04:10:02;94488.66;;;24.24;46.79
22389;BME280;11362;48.102;11.620;2023-08-06T04:12:28;94488.22;;;24.25;46.59
22389;BME280;11362;48.102;11.620;2023-08-06T04:14:54;94485.44;;;24.25;46.80
22389;BME280;11362;48.102;11.620;2023-08-06T04:17:20;94480.22;;;24.27;46.59
22389;BME280;11362;48.102;11.620;2023-08-06T04:19:47;94482.91;;;24.31;46.41
22389;BME280;11362;48.102;11.620;2023-08-06T04:22:13;94483.69;;;24.31;46.53
22389;BME280;11362;48.102;11.620;2023-08-06T04:24:38;94478.94;;;24.32;46.36
22389;BME280;11362;48.102;11.620;2023-08-06T04:27:04;94481.34;;;24.30;46.42
22389;BME280;11362;48.102;11.620;2023-08-06T04:33:05;94480.59;;;24.29;46.40
22389;BME280;11362;48.102;11.620;2023-08-06T04:35:30;94490.47;;;24.30;46.25
22389;BME280;11362;48.102;11.620;2023-08-06T04:37:55;94490.03;;;24.32;46.36
22389;BME280;11362;48.102;11.620;2023-08-06T04:40:21;94488.91;;;24.29;46.53
22389;BME280;11362;48.102;11.620;2023-08-06T04:42:46;94495.69;;;24.28;46.28
22389;BME280;11362;48.102;11.620;2023-08-06T04:45:11;94495.69;;;24.28;46.39
22389;BME280;11362;48.102;11.620;2023-08-06T04:47:37;94490.88;;;24.29;46.55
22389;BME280;11362;48.102;11.620;2023-08-06T04:50:02;94495.69;;;24.28;46.18
22389;BME280;11362;48.102;11.620;2023-08-06T04:52:28;94489.78;;;24.26;46.47
22389;BME280;11362;48.102;11.620;2023-08-06T04:54:54;94491.78;;;24.26;46.52
22389;BME280;11362;48.102;11.620;2023-08-06T05:00:16;94481.91;;;24.25;46.35
22389;BME280;11362;48.102;11.620;2023-08-06T05:02:41;94492.22;;;24.24;46.28
22389;BME280;11362;48.102;11.620;2023-08-06T05:05:07;94491.00;;;24.25;46.33
22389;BME280;11362;48.102;11.620;2023-08-06T05:07:32;94488.22;;;24.25;46.15
22389;BME280;11362;48.102;11.620;2023-08-06T05:09:57;94492.22;;;24.24;46.39
22389;BME280;11362;48.102;11.620;2023-08-06T05:12:23;94489.44;;;24.24;46.27
22389;BME280;11362;48.102;11.620;2023-08-06T05:14:48;94488.22;;;24.25;46.45
22389;BME280;11362;48.102;11.620;2023-08-06T05:17:13;94493.00;;;24.25;46.18
22389;BME280;11362;48.102;11.620;2023-08-06T05:19:38;94489.44;;;24.24;46.26
22389;BME280;11362;48.102;11.620;2023-08-06T05:22:04;94486.66;;;24.24;46.14
22389;BME280;11362;48.102;11.620;2023-08-06T05:27:27;94489.44;;;24.24;46.22
22389;BME280;11362;48.102;11.620;2023-08-06T05:29:54;94486.66;;;24.24;46.25
22389;BME280;11362;48.102;11.620;2023-08-06T05:32:20;94487.88;;;24.23;46.21
22389;BME280;11362;48.102;11.620;2023-08-06T05:34:45;94495.00;;;24.24;46.17
22389;BME280;11362;48.102;11.620;2023-08-06T05:37:10;94497.75;;;24.24;46.40
22389;BME280;11362;48.102;11.620;2023-08-06T05:39:36;94495.00;;;24.24;46.18
22389;BME280;11362;48.102;11.620;2023-08-06T05:42:01;94496.53;;;24.25;46.12
22389;BME280;11362;48.102;11.620;2023-08-06T05:44:26;94497.75;;;24.24;46.17
22389;BME280;11362;48.102;11.620;2023-08-06T05:46:52;94500.53;;;24.24;46.21
22389;BME280;11362;48.102;11.620;2023-08-06T05:49:17;94498.56;;;24.25;45.92
22389;BME280;11362;48.102;11.620;2023-08-06T05:54:39;94496.88;;;24.27;46.10
22389;BME280;11362;48.102;11.620;2023-08-06T05:57:05;94498.09;;;24.26;45.91
22389;BME280;11362;48.102;11.620;2023-08-06T05:59:30;94494.56;;;24.26;45.97
22389;BME280;11362;48.102;11.620;2023-08-06T06:01:56;94491.78;;;24.26;45.86
22389;BME280;11362;48.102;11.620;2023-08-06T06:04:21;94499.31;;;24.25;46.10
22389;BME280;11362;48.102;11.620;2023-08-06T06:06:46;94498.09;;;24.26;45.97
22389;BME280;11362;48.102;11.620;2023-08-06T06:09:12;94495.31;;;24.26;45.96
22389;BME280;11362;48.102;11.620;2023-08-06T06:11:37;94500.09;;;24.26;45.95
22389;BME280;11362;48.102;11.620;2023-08-06T06:14:02;94488.22;;;24.25;46.08
22389;BME280;11362;48.102;11.620;2023-08-06T06:16:27;94492.22;;;24.24;46.00
22389;BME280;11362;48.102;11.620;2023-08-06T06:20:51;94497.75;;;24.24;45.94
22389;BME280;11362;48.102;11.620;2023-08-06T06:23:16;94496.97;;;24.24;45.97
22389;BME280;11362;48.102;11.620;2023-08-06T06:25:51;94495.78;;;24.25;45.98
22389;BME280;11362;48.102;11.620;2023-08-06T06:28:16;94500.09;;;24.26;45.98
22389;BME280;11362;48.102;11.620;2023-08-06T06:30:42;94502.09;;;24.25;45.74
22389;BME280;11362;48.102;11.620;2023-08-06T06:33:07;94502.44;;;24.27;45.70
22389;BME280;11362;48.102;11.620;2023-08-06T06:35:33;94495.31;;;24.26;45.83
22389;BME280;11362;48.102;11.620;2023-08-06T06:37:58;94492.91;;;24.28;45.76
22389;BME280;11362;48.102;11.620;2023-08-06T06:40:24;94499.66;;;24.27;45.79
22389;BME280;11362;48.102;11.620;2023-08-06T06:42:50;94504.00;;;24.28;45.71
22389;BME280;11362;48.102;11.620;2023-08-06T06:45:15;94500.00;;;24.29;45.76
22389;BME280;11362;48.102;11.620;2023-08-06T06:47:41;94490.88;;;24.29;45.62
22389;BME280;11362;48.102;11.620;2023-08-06T06:52:38;94497.66;;;24.28;45.68
22389;BME280;11362;48.102;11.620;2023-08-06T06:55:04;94491.31;;;24.27;45.58
22389;BME280;11362;48.102;11.620;2023-08-06T06:57:29;94499.22;;;24.29;45.54
22389;BME280;11362;48.102;11.620;2023-08-06T06:59:54;94496.44;;;24.29;45.61
22389;BME280;11362;48.102;11.620;2023-08-06T07:02:20;94498.00;;;24.30;45.68
22389;BME280;11362;48.102;11.620;2023-08-06T07:04:45;94495.69;;;24.28;45.83
22389;BME280;11362;48.102;11.620;2023-08-06T07:07:10;94493.66;;;24.29;45.53
22389;BME280;11362;48.102;11.620;2023-08-06T07:09:36;94493.56;;;24.32;45.34
22389;BME280;11362;48.102;11.620;2023-08-06T07:12:01;94493.91;;;24.34;45.50
22389;BME280;11362;48.102;11.620;2023-08-06T07:14:28;94487.91;;;24.36;45.46
22389;BME280;11362;48.102;11.620;2023-08-06T07:19:30;94488.81;;;24.33;45.45
22389;BME280;11362;48.102;11.620;2023-08-06T07:21:55;94506.69;;;24.32;45.46
22389;BME280;11362;48.102;11.620;2023-08-06T07:24:21;94498.34;;;24.32;45.35
22389;BME280;11362;48.102;11.620;2023-08-06T07:26:46;94507.13;;;24.30;44.82
22389;BME280;11362;48.102;11.620;2023-08-06T07:29:11;94504.00;;;24.28;45.21
22389;BME280;11362;48.102;11.620;2023-08-06T07:31:37;94515.09;;;24.28;45.35
22389;BME280;11362;48.102;11.620;2023-08-06T07:34:02;94509.56;;;24.28;45.43
22389;BME280;11362;48.102;11.620;2023-08-06T07:36:27;94515.09;;;24.28;45.31
22389;BME280;11362;48.102;11.620;2023-08-06T07:38:53;94504.44;;;24.27;45.45
22389;BME280;11362;48.102;11.620;2023-08-06T07:41:18;94497.66;;;24.28;45.20
22389;BME280;11362;48.102;11.620;2023-08-06T07:46:57;94499.13;;;24.32;45.22
22389;BME280;11362;48.102;11.620;2023-08-06T07:49:22;94503.44;;;24.33;45.14
22389;BME280;11362;48.102;11.620;2023-08-06T07:51:48;94493.56;;;24.32;45.21
22389;BME280;11362;48.102;11.620;2023-08-06T07:54:13;94497.13;;;24.33;45.12
22389;BME280;11362;48.102;11.620;2023-08-06T07:56:38;94497.47;;;24.35;45.17
22389;BME280;11362;48.102;11.620;2023-08-06T07:59:03;94487.25;;;24.32;45.04
22389;BME280;11362;48.102;11.620;2023-08-06T08:01:29;94490.34;;;24.34;45.27
22389;BME280;11362;48.102;11.620;2023-08-06T08:03:54;94480.81;;;24.35;45.06
22389;BME280;11362;48.102;11.620;2023-08-06T08:06:19;94481.59;;;24.35;44.97
22389;BME280;11362;48.102;11.620;2023-08-06T08:08:44;94477.94;;;24.38;45.19
22389;BME280;11362;48.102;11.620;2023-08-06T08:13:47;94458.50;;;24.38;45.02
22389;BME280;11362;48.102;11.620;2023-08-06T08:16:13;94470.28;;;24.42;45.00
22389;BME280;11362;48.102;11.620;2023-08-06T08:18:38;94463.84;;;24.45;44.85
22389;BME280;11362;48.102;11.620;2023-08-06T08:21:03;94460.63;;;24.47;44.92
22389;BME280;11362;48.102;11.620;2023-08-06T08:23:29;94451.84;;;24.48;44.73
22389;BME280;11362;48.102;11.620;2023-08-06T08:25:54;94446.28;;;24.48;44.63
22389;BME280;11362;48.102;11.620;2023-08-06T08:28:19;94441.97;;;24.47;44.80
22389;BME280;11362;48.102;11.620;2023-08-06T08:30:45;94443.06;;;24.50;44.75
22389;BME280;11362;48.102;11.620;2023-08-06T08:33:10;94437.31;;;24.44;44.67
22389;BME280;11362;48.102;11.620;2023-08-06T08:35:36;94426.53;;;24.46;44.91
22389;BME280;11362;48.102;11.620;2023-08-06T08:39:29;94439.97;;;24.48;44.58
22389;BME280;11362;48.102;11.620;2023-08-06T08:41:54;94435.19;;;24.48;44.72
22389;BME280;11362;48.102;11.620;2023-08-06T08:44:19;94449.06;;;24.48;44.63
22389;BME280;11362;48.102;11.620;2023-08-06T08:46:45;94437.63;;;24.46;44.40
22389;BME280;11362;48.102;11.620;2023-08-06T08:49:11;94442.06;;;24.44;44.66
22389;BME280;11362;48.102;11.620;2023-08-06T08:51:36;94444.09;;;24.43;44.64
22389;BME280;11362;48.102;11.620;2023-08-06T08:54:07;94450.84;;;24.42;44.40
22389;BME280;11362;48.102;11.620;2023-08-06T08:56:32;94452.84;;;24.42;44.34
22389;BME280;11362;48.102;11.620;2023-08-06T08:58:58;94468.72;;;24.41;44.46
22389;BME280;11362;48.102;11.620;2023-08-06T09:01:23;94454.81;;;24.41;44.23
22389;BME280;11362;48.102;11.620;2023-08-06T09:06:27;94458.72;;;24.44;44.30
22389;BME280;11362;48.102;11.620;2023-08-06T09:09:08;94456.75;;;24.44;44.35
22389;BME280;11362;48.102;11.620;2023-08-06T09:11:37;94466.28;;;24.43;44.21
22389;BME280;11362;48.102;11.620;2023-08-06T09:14:06;94473.06;;;24.42;44.12
22389;BME280;11362;48.102;11.620;2023-08-06T09:16:33;94472.72;;;24.40;44.31
22389;BME280;11362;48.102;11.620;2023-08-06T09:19:07;94487.81;;;24.39;44.36
22389;BME280;11362;48.102;11.620;2023-08-06T09:21:32;94492.50;;;24.42;44.28
22389;BME280;11362;48.102;11.620;2023-08-06T09:23:58;94495.38;;;24.39;44.28
22389;BME280;11362;48.102;11.620;2023-08-06T09:26:24;94493.38;;;24.39;44.08
22389;BME280;11362;48.102;11.620;2023-08-06T09:31:48;94472.81;;;24.37;44.18
22389;BME280;11362;48.102;11.620;2023-08-06T09:34:18;94474.03;;;24.36;44.10
22389;BME280;11362;48.102;11.620;2023-08-06T09:36:49;94475.16;;;24.38;44.14
22389;BME280;11362;48.102;11.620;2023-08-06T09:39:15;94480.72;;;24.38;43.96
22389;BME280;11362;48.102;11.620;2023-08-06T09:41:41;94483.03;;;24.40;44.06
22389;BME280;11362;48.102;11.620;2023-08-06T09:44:18;94468.72;;;24.41;44.16
22389;BME280;11362;48.102;11.620;2023-08-06T09:46:48;94486.94;;;24.42;43.96
22389;BME280;11362;48.102;11.620;2023-08-06T09:49:14;94478.63;;;24.42;44.19
22389;BME280;11362;48.102;11.620;2023-08-06T09:51:39;94479.06;;;24.41;43.82
22389;BME280;11362;48.102;11.620;2023-08-06T09:57:02;94475.84;;;24.42;43.81
22389;BME280;11362;48.102;11.620;2023-08-06T09:59:28;94473.06;;;24.42;43.74
22389;BME280;11362;48.102;11.620;2023-08-06T10:01:54;94488.94;;;24.42;43.94
22389;BME280;11362;48.102;11.620;2023-08-06T10:04:19;94485.38;;;24.41;43.73
22389;BME280;11362;48.102;11.620;2023-08-06T10:06:47;94480.59;;;24.42;43.77
22389;BME280;11362;48.102;11.620;2023-08-06T10:09:12;94495.28;;;24.42;43.62
22389;BME280;11362;48.102;11.620;2023-08-06T10:11:39;94484.94;;;24.43;43.80
22389;BME280;11362;48.102;11.620;2023-08-06T10:14:11;94498.06;;;24.42;43.83
22389;BME280;11362;48.102;11.620;2023-08-06T10:16:38;94487.38;;;24.41;43.69
22389;BME280;11362;48.102;11.620;2023-08-06T10:19:04;94490.91;;;24.41;43.72
22389;BME280;11362;48.102;11.620;2023-08-06T10:24:55;94492.50;;;24.42;43.66
22389;BME280;11362;48.102;11.620;2023-08-06T10:27:23;94495.28;;;24.42;43.47
22389;BME280;11362;48.102;11.620;2023-08-06T10:29:52;94476.59;;;24.43;43.62
22389;BME280;11362;48.102;11.620;2023-08-06T10:32:18;94491.59;;;24.45;43.57
22389;BME280;11362;48.102;11.620;2023-08-06T10:34:59;94484.81;;;24.46;43.28
22389;BME280;11362;48.102;11.620;2023-08-06T10:37:35;94478.50;;;24.46;43.35
22389;BME280;11362;48.102;11.620;2023-08-06T10:40:00;94483.72;;;24.44;43.72
22389;BME280;11362;48.102;11.620;2023-08-06T10:42:30;94487.72;;;24.43;43.41
22389;BME280;11362;48.102;11.620;2023-08-06T10:45:17;94496.38;;;24.45;43.53
22389;BME280;11362;48.102;11.620;2023-08-06T10:47:43;94486.94;;;24.42;43.36
22389;BME280;11362;48.102;11.620;2023-08-06T10:51:54;94498.47;;;24.41;43.41
22389;BME280;11362;48.102;11.620;2023-08-06T10:54:19;94504.03;;;24.41;43.54
22389;BME280;11362;48.102;11.620;2023-08-06T10:56:45;94500.03;;;24.42;43.36
22389;BME280;11362;48.102;11.620;2023-08-06T10:59:10;94499.59;;;24.43;43.22
22389;BME280;11362;48.102;11.620;2023-08-06T11:01:35;94501.91;;;24.45;43.23
22389;BME280;11362;48.102;11.620;2023-08-06T11:04:02;94509.81;;;24.46;43.41
22389;BME280;11362;48.102;11.620;2023-08-06T11:06:27;94496.25;;;24.48;43.21
22389;BME280;11362;48.102;11.620;2023-08-06T11:08:54;94490.72;;;24.48;42.82
22389;BME280;11362;48.102;11.620;2023-08-06T11:11:20;94494.72;;;24.47;43.36
22389;BME280;11362;48.102;11.620;2023-08-06T11:13:47;94504.25;;;24.46;43.35
22389;BME280;11362;48.102;11.620;2023-08-06T11:17:36;94505.81;;;24.47;43.32
22389;BME280;11362;48.102;11.620;2023-08-06T11:20:05;94503.94;;;24.44;43.22
22389;BME280;11362;48.102;11.620;2023-08-06T11:22:31;94498.06;;;24.42;43.48
22389;BME280;11362;48.102;11.620;2023-08-06T11:24:56;94514.34;;;24.40;43.25
22389;BME280;11362;48.102;11.620;2023-08-06T11:27:22;94514.00;;;24.38;43.32
22389;BME280;11362;48.102;11.620;2023-08-06T11:29:47;94518.78;;;24.38;43.24
22389;BME280;11362;48.102;11.620;2023-08-06T11:32:13;94530.25;;;24.40;43.33
22389;BME280;11362;48.102;11.620;2023-08-06T11:34:39;94504.78;;;24.41;43.25
22389;BME280;11362;48.102;11.620;2023-08-06T11:37:05;94531.34;;;24.42;43.31
22389;BME280;11362;48.102;11.620;2023-08-06T11:42:16;94528.22;;;24.40;43.26
22389;BME280;11362;48.102;11.620;2023-08-06T11:44:41;94537.34;;;24.41;43.31
22389;BME280;11362;48.102;11.620;2023-08-06T11:47:15;94529.78;;;24.41;43.07
22389;BME280;11362;48.102;11.620;2023-08-06T11:49:48;94537.78;;;24.39;43.19
22389;BME280;11362;48.102;11.620;2023-08-06T11:52:21;94535.31;;;24.41;43.10
22389;BME280;11362;48.102;11.620;2023-08-06T11:54:51;94536.13;;;24.42;43.23
22389;BME280;11362;48.102;11.620;2023-08-06T11:57:24;94542.91;;;24.41;43.05
22389;BME280;11362;48.102;11.620;2023-08-06T11:59:49;94546.44;;;24.41;43.19
22389;BME280;11362;48.102;11.620;2023-08-06T12:02:15;94540.88;;;24.41;43.10
22389;BME280;11362;48.102;11.620;2023-08-06T12:09:27;94544.88;;;24.40;43.40
22389;BME280;11362;48.102;11.620;2023-08-06T12:11:52;94536.13;;;24.42;43.17
22389;BME280;11362;48.102;11.620;2023-08-06T12:14:18;94544.88;;;24.40;43.10
22389;BME280;11362;48.102;11.620;2023-08-06T12:16:43;94552.78;;;24.42;43.23
22389;BME280;11362;48.102;11.620;2023-08-06T12:19:08;94559.13;;;24.42;43.04
22389;BME280;11362;48.102;11.620;2023-08-06T12:21:33;94551.97;;;24.41;43.33
22389;BME280;11362;48.102;11.620;2023-08-06T12:23:59;94549.22;;;24.41;43.25
22389;BME280;11362;48.102;11.620;2023-08-06T12:26:24;94546.91;;;24.40;43.48
22389;BME280;11362;48.102;11.620;2023-08-06T12:28:49;94534.25;;;24.39;43.15
22389;BME280;11362;48.102;11.620;2023-08-06T12:33:51;94537.88;;;24.36;43.27
22389;BME280;11362;48.102;11.620;2023-08-06T12:36:17;94539.09;;;24.35;43.43
22389;BME280;11362;48.102;11.620;2023-08-06T12:38:42;94555.31;;;24.36;43.19
22389;BME280;11362;48.102;11.620;2023-08-06T12:41:07;94548.22;;;24.35;43.27
22389;BME280;11362;48.102;11.620;2023-08-06T12:43:33;94547.41;;;24.35;43.32
22389;BME280;11362;48.102;11.620;2023-08-06T12:45:58;94545.06;;;24.33;43.17
22389;BME280;11362;48.102;11.620;2023-08-06T12:48:23;94551.41;;;24.34;43.25
22389;BME280;11362;48.102;11.620;2023-08-06T12:50:49;94561.72;;;24.33;43.32
22389;BME280;11362;48.102;11.620;2023-08-06T12:53:14;94568.06;;;24.34;43.22
22389;BME280;11362;48.102;11.620;2023-08-06T12:55:39;94579.19;;;24.34;43.25
22389;BME280;11362;48.102;11.620;2023-08-06T13:00:48;94581.53;;;24.35;43.40
22389;BME280;11362;48.102;11.620;2023-08-06T13:03:13;94590.19;;;24.37;43.73
22389;BME280;11362;48.102;11.620;2023-08-06T13:05:39;94580.63;;;24.38;44.07
22389;BME280;11362;48.102;11.620;2023-08-06T13:08:04;94590.19;;;24.37;43.46
22389;BME280;11362;48.102;11.620;2023-08-06T13:10:29;94584.63;;;24.37;43.38
22389;BME280;11362;48.102;11.620;2023-08-06T13:12:55;94582.63;;;24.38;43.32
22389;BME280;11362;48.102;11.620;2023-08-06T13:15:20;94583.41;;;24.38;43.52
22389;BME280;11362;48.102;11.620;2023-08-06T13:17:46;94587.75;;;24.39;43.33
22389;BME280;11362;48.102;11.620;2023-08-06T13:20:11;94593.28;;;24.39;43.27
22389;BME280;11362;48.102;11.620;2023-08-06T13:25:45;94593.63;;;24.41;43.53
22389;BME280;11362;48.102;11.620;2023-08-06T13:28:10;94600.41;;;24.40;43.46
22389;BME280;11362;48.102;11.620;2023-08-06T13:30:36;94587.31;;;24.41;43.46
22389;BME280;11362;48.102;11.620;2023-08-06T13:33:01;94601.28;;;24.37;43.27
22389;BME280;11362;48.102;11.620;2023-08-06T13:35:27;94594.94;;;24.37;43.51
22389;BME280;11362;48.102;11.620;2023-08-06T13:37:52;94605.63;;;24.38;43.48
22389;BME280;11362;48.102;11.620;2023-08-06T13:40:17;94596.50;;;24.38;43.53
22389;BME280;11362;48.102;11.620;2023-08-06T13:42:42;94601.94;;;24.41;43.50
22389;BME280;11362;48.102;11.620;2023-08-06T13:45:08;94607.88;;;24.43;43.41
22389;BME280;11362;48.102;11.620;2023-08-06T13:47:33;94605.09;;;24.43;43.34
22389;BME280;11362;48.102;11.620;2023-08-06T13:52:26;94607.50;;;24.41;43.33
22389;BME280;11362;48.102;11.620;2023-08-06T13:54:52;94611.50;;;24.40;43.46
22389;BME280;11362;48.102;11.620;2023-08-06T13:57:17;94613.06;;;24.41;43.46
22389;BME280;11362;48.102;11.620;2023-08-06T13:59:43;94604.72;;;24.41;43.49
22389;BME280;11362;48.102;11.620;2023-08-06T14:02:08;94610.75;;;24.40;43.55
22389;BME280;11362;48.102;11.620;2023-08-06T14:04:33;94611.97;;;24.39;43.66
22389;BME280;11362;48.102;11.620;2023-08-06T14:06:59;94611.16;;;24.38;43.40
22389;BME280;11362;48.102;11.620;2023-08-06T14:09:24;94617.94;;;24.37;43.51
22389;BME280;11362;48.102;11.620;2023-08-06T14:11:49;94627.50;;;24.36;43.62